createdAt,value
2017-10-23T00:01:46.771Z,1.47
2017-10-23T00:04:15.619Z,1.20
2017-10-23T00:06:44.508Z,1.30
2017-10-23T00:09:13.350Z,1.40
2017-10-23T00:11:42.218Z,1.57
2017-10-23T00:14:11.071Z,1.30
2017-10-23T00:16:40.021Z,1.63
2017-10-23T00:19:08.868Z,1.50
2017-10-23T00:21:37.710Z,1.87
2017-10-23T00:24:06.582Z,1.37
2017-10-23T00:26:35.494Z,1.40
2017-10-23T00:29:04.387Z,1.60
2017-10-23T00:31:33.246Z,1.37
2017-10-23T00:34:02.131Z,1.40
2017-10-23T00:36:31.025Z,1.60
2017-10-23T00:38:59.869Z,1.83
2017-10-23T00:41:28.740Z,1.70
2017-10-23T00:43:57.592Z,1.60
2017-10-23T00:46:26.484Z,1.70
2017-10-23T00:48:55.326Z,1.53
2017-10-23T00:51:24.214Z,1.80
2017-10-23T00:53:53.066Z,1.70
2017-10-23T00:56:21.904Z,1.60
2017-10-23T00:58:50.762Z,1.80
2017-10-23T01:01:19.604Z,1.43
2017-10-23T01:03:48.469Z,2.10
2017-10-23T01:06:17.319Z,1.50
2017-10-23T01:08:46.194Z,1.50
2017-10-23T01:11:15.033Z,1.90
2017-10-23T01:13:43.930Z,1.70
2017-10-23T01:16:12.780Z,1.67
2017-10-23T01:18:41.655Z,1.50
2017-10-23T01:21:10.518Z,1.30
2017-10-23T01:23:39.365Z,1.33
2017-10-23T01:26:08.234Z,1.53
2017-10-23T01:28:37.083Z,1.37
2017-10-23T01:31:05.966Z,1.60
2017-10-23T01:33:34.827Z,1.20
2017-10-23T01:36:03.683Z,1.60
2017-10-23T01:38:32.543Z,1.53
2017-10-23T01:41:01.391Z,1.00
2017-10-23T01:43:30.259Z,1.50
2017-10-23T01:45:59.106Z,1.43
2017-10-23T01:48:28.012Z,1.17
2017-10-23T01:50:56.864Z,2.03
2017-10-23T01:53:25.719Z,1.23
2017-10-23T01:55:54.600Z,1.30
2017-10-23T01:58:23.549Z,1.20
2017-10-23T02:00:52.438Z,1.90
2017-10-23T02:03:21.377Z,1.67
2017-10-23T02:05:50.319Z,1.90
2017-10-23T02:08:19.158Z,1.37
2017-10-23T02:10:47.998Z,1.23
2017-10-23T02:13:16.865Z,1.67
2017-10-23T02:15:45.723Z,1.50
2017-10-23T02:18:14.584Z,0.97
2017-10-23T02:20:43.431Z,1.63
2017-10-23T02:23:12.319Z,1.57
2017-10-23T02:25:41.233Z,1.57
2017-10-23T02:28:10.087Z,1.90
2017-10-23T02:30:38.959Z,1.67
2017-10-23T02:33:07.811Z,1.60
2017-10-23T02:35:36.671Z,1.90
2017-10-23T02:38:05.511Z,1.03
2017-10-23T02:40:34.379Z,1.43
2017-10-23T02:43:03.228Z,1.57
2017-10-23T02:45:32.106Z,1.33
2017-10-23T02:48:00.956Z,1.97
2017-10-23T02:50:29.847Z,2.07
2017-10-23T02:52:58.731Z,1.03
2017-10-23T02:55:27.592Z,1.80
2017-10-23T02:57:56.466Z,1.53
2017-10-23T03:00:25.323Z,1.53
2017-10-23T03:02:54.257Z,1.60
2017-10-23T03:05:23.110Z,1.33
2017-10-23T03:07:52.154Z,1.47
2017-10-23T03:10:21.011Z,1.73
2017-10-23T03:12:49.876Z,1.67
2017-10-23T03:15:18.753Z,1.20
2017-10-23T03:17:47.610Z,1.80
2017-10-23T03:20:16.492Z,1.37
2017-10-23T03:22:45.381Z,1.57
2017-10-23T03:25:14.265Z,1.27
2017-10-23T03:27:43.122Z,1.90
2017-10-23T03:30:11.975Z,1.40
2017-10-23T03:32:40.843Z,1.80
2017-10-23T03:35:09.694Z,1.10
2017-10-23T03:37:38.573Z,1.43
2017-10-23T03:40:07.443Z,1.70
2017-10-23T03:42:36.320Z,1.03
2017-10-23T03:45:05.167Z,1.90
2017-10-23T03:47:34.039Z,1.10
2017-10-23T03:50:02.920Z,1.23
2017-10-23T03:52:31.774Z,1.13
2017-10-23T03:55:00.639Z,1.63
2017-10-23T03:57:29.484Z,1.77
2017-10-23T03:59:58.367Z,1.60
2017-10-23T04:02:27.220Z,1.63
2017-10-23T04:04:56.140Z,1.43
2017-10-23T04:07:25.007Z,1.50
2017-10-23T04:09:53.862Z,1.40
2017-10-23T04:12:22.744Z,1.30
2017-10-23T04:14:51.599Z,1.63
2017-10-23T04:17:20.466Z,1.70
2017-10-23T04:19:49.328Z,1.80
2017-10-23T04:22:18.228Z,1.40
2017-10-23T04:24:47.095Z,1.43
2017-10-23T04:27:16.002Z,1.70
2017-10-23T04:29:44.871Z,1.40
2017-10-23T04:32:13.727Z,2.13
2017-10-23T04:34:42.589Z,1.90
2017-10-23T04:37:11.443Z,1.77
2017-10-23T04:39:40.524Z,1.33
2017-10-23T04:42:09.390Z,1.80
2017-10-23T04:44:38.239Z,1.33
2017-10-23T04:47:07.095Z,1.70
2017-10-23T04:49:35.934Z,1.87
2017-10-23T04:52:04.807Z,1.80
2017-10-23T04:54:33.660Z,1.43
2017-10-23T04:57:02.557Z,1.93
2017-10-23T04:59:31.414Z,1.50
2017-10-23T05:02:00.270Z,1.80
2017-10-23T05:04:29.146Z,1.43
2017-10-23T05:06:58.017Z,1.50
2017-10-23T05:09:26.945Z,1.50
2017-10-23T05:11:55.801Z,1.20
2017-10-23T05:14:24.686Z,1.47
2017-10-23T05:16:53.563Z,1.20
2017-10-23T05:19:22.432Z,1.47
2017-10-23T05:21:51.302Z,1.87
2017-10-23T05:24:20.162Z,1.50
2017-10-23T05:26:49.068Z,1.70
2017-10-23T05:29:17.933Z,2.03
2017-10-23T05:31:46.766Z,1.60
2017-10-23T05:34:15.626Z,1.50
2017-10-23T05:36:44.483Z,2.00
2017-10-23T05:39:13.355Z,2.03
2017-10-23T05:41:42.216Z,2.00
2017-10-23T05:44:11.106Z,1.77
2017-10-23T05:46:39.966Z,1.80
2017-10-23T05:49:08.811Z,2.00
2017-10-23T05:51:37.803Z,1.90
2017-10-23T05:54:06.742Z,1.73
2017-10-23T05:56:35.619Z,2.07
2017-10-23T05:59:04.516Z,2.50
2017-10-23T06:01:33.385Z,1.83
2017-10-23T06:04:02.279Z,2.13
2017-10-23T06:06:31.130Z,2.30
2017-10-23T06:08:59.991Z,1.90
2017-10-23T06:11:28.861Z,1.37
2017-10-23T06:13:57.721Z,1.70
2017-10-23T06:16:26.577Z,1.67
2017-10-23T06:18:55.436Z,2.53
2017-10-23T06:21:24.373Z,1.97
2017-10-23T06:23:53.212Z,1.83
2017-10-23T06:26:22.063Z,1.47
2017-10-23T06:28:50.978Z,1.93
2017-10-23T06:31:19.818Z,2.13
2017-10-23T06:33:48.682Z,1.70
2017-10-23T06:36:17.589Z,2.10
2017-10-23T06:38:46.687Z,1.60
2017-10-23T06:41:15.545Z,1.67
2017-10-23T06:43:44.394Z,1.93
2017-10-23T06:46:14.476Z,2.57
2017-10-23T06:48:43.455Z,2.10
2017-10-23T06:51:12.342Z,2.67
2017-10-23T06:53:41.219Z,1.77
2017-10-23T06:56:10.536Z,2.10
2017-10-23T06:58:39.405Z,1.90
2017-10-23T07:01:08.293Z,1.80
2017-10-23T07:03:37.163Z,1.77
2017-10-23T07:06:06.011Z,2.40
2017-10-23T07:08:34.883Z,1.60
2017-10-23T07:11:03.743Z,1.87
2017-10-23T07:13:32.630Z,1.53
2017-10-23T07:16:01.487Z,2.10
2017-10-23T07:18:30.453Z,2.40
2017-10-23T07:20:59.296Z,2.07
2017-10-23T07:23:28.143Z,1.60
2017-10-23T07:25:57.013Z,1.63
2017-10-23T07:28:25.880Z,1.67
2017-10-23T07:30:54.756Z,1.90
2017-10-23T07:33:23.607Z,2.27
2017-10-23T07:35:52.499Z,1.77
2017-10-23T07:38:21.354Z,2.97
2017-10-23T07:40:50.204Z,1.73
2017-10-23T07:43:19.094Z,1.87
2017-10-23T07:45:47.984Z,2.30
2017-10-23T07:48:16.825Z,1.97
2017-10-23T07:50:45.670Z,2.20
2017-10-23T07:53:14.547Z,2.03
2017-10-23T07:55:43.398Z,2.10
2017-10-23T07:58:12.276Z,1.83
2017-10-23T08:00:41.118Z,2.10
2017-10-23T08:03:10.441Z,2.00
2017-10-23T08:05:39.290Z,2.10
2017-10-23T08:08:08.142Z,3.90
2017-10-23T08:10:37.039Z,2.53
2017-10-23T08:13:05.921Z,2.10
2017-10-23T08:15:34.786Z,2.43
2017-10-23T08:18:03.650Z,2.50
2017-10-23T08:20:33.227Z,2.77
2017-10-23T08:23:02.089Z,2.03
2017-10-23T08:25:30.938Z,2.77
2017-10-23T08:27:59.822Z,3.50
2017-10-23T08:30:28.676Z,2.50
2017-10-23T08:32:57.541Z,3.33
2017-10-23T08:35:26.426Z,2.20
2017-10-23T08:37:55.332Z,2.70
2017-10-23T08:40:24.193Z,2.80
2017-10-23T08:42:53.200Z,2.73
2017-10-23T08:45:22.047Z,2.80
2017-10-23T08:47:50.903Z,2.80
2017-10-23T08:50:20.737Z,2.40
2017-10-23T08:52:49.630Z,2.83
2017-10-23T08:55:18.505Z,3.80
2017-10-23T08:57:47.354Z,2.00
2017-10-23T09:00:16.550Z,1.87
2017-10-23T09:02:45.401Z,2.17
2017-10-23T09:05:14.245Z,2.30
2017-10-23T09:07:43.107Z,2.10
2017-10-23T09:10:11.950Z,2.13
2017-10-23T09:12:40.826Z,3.03
2017-10-23T09:15:09.666Z,2.17
2017-10-23T09:17:38.518Z,2.30
2017-10-23T09:20:07.380Z,2.40
2017-10-23T09:22:36.243Z,2.33
2017-10-23T09:25:05.090Z,1.80
2017-10-23T09:27:33.994Z,2.57
2017-10-23T09:30:02.867Z,3.13
2017-10-23T09:32:31.725Z,3.30
2017-10-23T09:35:00.603Z,2.27
2017-10-23T09:37:29.459Z,1.83
2017-10-23T09:39:58.334Z,2.37
2017-10-23T09:42:27.178Z,1.60
2017-10-23T09:44:56.071Z,2.10
2017-10-23T09:47:24.929Z,2.30
2017-10-23T09:49:53.813Z,2.50
2017-10-23T09:52:22.651Z,2.40
2017-10-23T09:54:51.493Z,3.60
2017-10-23T09:57:20.390Z,2.80
2017-10-23T09:59:49.234Z,2.23
2017-10-23T10:02:18.098Z,2.13
2017-10-23T10:04:46.955Z,2.47
2017-10-23T10:07:15.854Z,2.40
2017-10-23T10:09:44.693Z,2.27
2017-10-23T10:12:13.671Z,1.53
2017-10-23T10:14:42.539Z,2.10
2017-10-23T10:17:11.383Z,1.90
2017-10-23T10:19:40.266Z,2.20
2017-10-23T10:22:09.124Z,2.50
2017-10-23T10:24:37.985Z,1.70
2017-10-23T10:27:06.829Z,1.93
2017-10-23T10:29:35.719Z,2.70
2017-10-23T10:32:04.578Z,1.70
2017-10-23T10:34:33.432Z,2.13
2017-10-23T10:37:02.299Z,2.23
2017-10-23T10:39:31.150Z,2.00
2017-10-23T10:42:00.013Z,2.17
2017-10-23T10:44:28.865Z,2.20
2017-10-23T10:46:57.742Z,1.83
2017-10-23T10:49:26.600Z,1.60
2017-10-23T10:51:55.494Z,1.97
2017-10-23T10:54:24.354Z,1.63
2017-10-23T10:56:53.211Z,1.63
2017-10-23T10:59:22.072Z,2.20
2017-10-23T11:01:50.979Z,2.37
2017-10-23T11:04:19.827Z,2.03
2017-10-23T11:06:48.679Z,2.30
2017-10-23T11:09:17.535Z,2.40
2017-10-23T11:11:46.381Z,1.67
2017-10-23T11:14:15.243Z,1.73
2017-10-23T11:16:44.099Z,1.83
2017-10-23T11:19:12.966Z,2.20
2017-10-23T11:21:41.818Z,1.67
2017-10-23T11:24:10.722Z,2.10
2017-10-23T11:26:39.607Z,1.87
2017-10-23T11:29:08.466Z,1.57
2017-10-23T11:31:37.308Z,1.80
2017-10-23T11:34:06.227Z,1.67
2017-10-23T11:36:35.092Z,1.83
2017-10-23T11:39:03.934Z,1.70
2017-10-23T11:41:32.791Z,1.67
2017-10-23T11:44:01.637Z,1.60
2017-10-23T11:46:30.495Z,1.80
2017-10-23T11:48:59.345Z,1.73
2017-10-23T11:51:28.219Z,3.10
2017-10-23T11:53:57.078Z,1.70
2017-10-23T11:56:25.977Z,2.10
2017-10-23T11:58:54.825Z,1.90
2017-10-23T12:01:23.726Z,1.80
2017-10-23T12:03:52.610Z,1.03
2017-10-23T12:06:21.475Z,1.93
2017-10-23T12:08:50.340Z,1.70
2017-10-23T12:11:19.194Z,2.23
2017-10-23T12:13:48.069Z,1.70
2017-10-23T12:16:16.911Z,1.87
2017-10-23T12:18:45.839Z,2.10
2017-10-23T12:21:14.709Z,2.60
2017-10-23T12:23:43.571Z,2.30
2017-10-23T12:26:12.421Z,2.40
2017-10-23T12:28:41.311Z,2.13
2017-10-23T12:31:10.174Z,2.20
2017-10-23T12:33:39.050Z,1.90
2017-10-23T12:36:07.897Z,2.20
2017-10-23T12:38:36.795Z,2.30
2017-10-23T12:41:05.646Z,1.90
2017-10-23T12:43:34.490Z,2.30
2017-10-23T12:46:03.358Z,2.20
2017-10-23T12:48:32.301Z,2.17
2017-10-23T12:51:01.165Z,2.67
2017-10-23T12:53:30.050Z,2.43
2017-10-23T12:55:58.984Z,2.60
2017-10-23T12:58:27.839Z,2.73
2017-10-23T13:00:56.682Z,2.83
2017-10-23T13:03:25.560Z,3.00
2017-10-23T13:05:54.398Z,3.03
2017-10-23T13:08:23.266Z,2.50
2017-10-23T13:10:52.115Z,2.80
2017-10-23T13:13:21.214Z,2.80
2017-10-23T13:15:50.060Z,3.50
2017-10-23T13:18:18.902Z,3.63
2017-10-23T13:20:47.783Z,2.97
2017-10-23T13:23:16.623Z,3.20
2017-10-23T13:25:45.485Z,3.50
2017-10-23T13:28:14.341Z,3.27
2017-10-23T13:30:43.258Z,3.37
2017-10-23T13:33:12.103Z,2.70
2017-10-23T13:35:40.975Z,2.60
2017-10-23T13:38:09.835Z,2.83
2017-10-23T13:40:38.689Z,1.87
2017-10-23T13:43:07.579Z,2.60
2017-10-23T13:45:36.432Z,3.80
2017-10-23T13:48:05.435Z,3.00
2017-10-23T13:50:34.281Z,2.30
2017-10-23T13:53:03.137Z,2.60
2017-10-23T13:55:32.010Z,2.93
2017-10-23T13:58:00.863Z,2.87
2017-10-23T14:00:29.755Z,2.33
2017-10-23T14:02:58.616Z,2.80
2017-10-23T14:05:27.524Z,3.03
2017-10-23T14:07:56.366Z,3.40
2017-10-23T14:10:25.219Z,3.07
2017-10-23T14:12:54.132Z,3.10
2017-10-23T14:15:22.974Z,3.47
2017-10-23T14:17:51.857Z,3.10
2017-10-23T14:20:20.714Z,3.57
2017-10-23T14:22:49.584Z,2.60
2017-10-23T14:25:18.429Z,3.23
2017-10-23T14:27:47.292Z,3.60
2017-10-23T14:30:16.179Z,2.80
2017-10-23T14:32:45.091Z,2.63
2017-10-23T14:35:13.937Z,2.40
2017-10-23T14:37:42.792Z,2.97
2017-10-23T14:40:11.657Z,2.57
2017-10-23T14:42:40.564Z,2.53
2017-10-23T14:45:09.452Z,2.67
2017-10-23T14:47:38.310Z,1.93
2017-10-23T14:50:07.202Z,1.93
2017-10-23T14:52:36.047Z,2.60
2017-10-23T14:55:04.903Z,1.90
2017-10-23T14:57:33.821Z,2.50
2017-10-23T15:00:02.684Z,2.80
2017-10-23T15:02:31.559Z,2.53
2017-10-23T15:05:00.406Z,2.63
2017-10-23T15:07:29.606Z,2.50
2017-10-23T15:09:58.460Z,2.30
2017-10-23T15:12:27.310Z,2.10
2017-10-23T15:14:56.181Z,2.63
2017-10-23T15:17:25.037Z,2.70
2017-10-23T15:19:53.904Z,3.03
2017-10-23T15:22:22.745Z,2.50
2017-10-23T15:24:51.633Z,2.30
2017-10-23T15:27:20.478Z,2.60
2017-10-23T15:29:49.355Z,2.87
2017-10-23T15:32:18.223Z,2.77
2017-10-23T15:34:47.093Z,2.47
2017-10-23T15:37:15.956Z,2.23
2017-10-23T15:39:44.795Z,2.57
2017-10-23T15:42:13.812Z,2.23
2017-10-23T15:44:42.656Z,1.93
2017-10-23T15:47:11.498Z,3.40
2017-10-23T15:49:40.390Z,2.80
2017-10-23T15:52:09.259Z,3.23
2017-10-23T15:54:38.136Z,3.00
2017-10-23T15:57:06.983Z,3.40
2017-10-23T15:59:36.106Z,3.17
2017-10-23T16:02:04.966Z,6.67
2017-10-23T16:04:33.851Z,3.30
2017-10-23T16:07:02.741Z,2.80
2017-10-23T16:09:31.609Z,3.40
2017-10-23T16:12:00.481Z,3.20
2017-10-23T16:14:29.343Z,3.37
2017-10-23T16:16:58.372Z,3.20
2017-10-23T16:19:27.224Z,2.50
2017-10-23T16:21:56.070Z,3.80
2017-10-23T16:24:24.925Z,3.20
2017-10-23T16:26:53.809Z,3.40
2017-10-23T16:29:22.667Z,3.57
2017-10-23T16:31:51.507Z,3.47
2017-10-23T16:34:20.362Z,3.87
2017-10-23T16:36:49.253Z,3.50
2017-10-23T16:39:18.091Z,4.00
2017-10-23T16:41:46.939Z,3.97
2017-10-23T16:44:15.812Z,4.70
2017-10-23T16:46:44.659Z,4.40
2017-10-23T16:49:14.276Z,5.57
2017-10-23T16:51:43.137Z,4.27
2017-10-23T16:54:12.031Z,4.77
2017-10-23T16:56:40.868Z,4.30
2017-10-23T16:59:09.717Z,4.23
2017-10-23T17:01:38.587Z,5.50
2017-10-23T17:04:07.863Z,4.90
2017-10-23T17:06:36.728Z,5.10
2017-10-23T17:09:05.567Z,4.67
2017-10-23T17:11:34.443Z,4.60
2017-10-23T17:14:03.299Z,5.30
2017-10-23T17:16:32.178Z,5.20
2017-10-23T17:19:01.040Z,5.43
2017-10-23T17:21:29.887Z,4.20
2017-10-23T17:23:58.756Z,4.90
2017-10-23T17:26:27.627Z,4.67
2017-10-23T17:28:56.686Z,4.67
2017-10-23T17:31:25.527Z,4.37
2017-10-23T17:33:54.379Z,4.70
2017-10-23T17:36:23.251Z,4.20
2017-10-23T17:38:52.167Z,4.30
2017-10-23T17:41:21.047Z,4.10
2017-10-23T17:43:49.895Z,4.00
2017-10-23T17:46:18.770Z,4.00
2017-10-23T17:48:47.613Z,4.70
2017-10-23T17:51:16.482Z,6.37
2017-10-23T17:53:45.345Z,5.10
2017-10-23T17:56:14.210Z,4.20
2017-10-23T17:58:43.088Z,4.27
2017-10-23T18:01:11.934Z,3.90
2017-10-23T18:03:40.828Z,3.67
2017-10-23T18:06:09.674Z,3.90
2017-10-23T18:08:38.535Z,3.80
2017-10-23T18:11:07.418Z,3.87
2017-10-23T18:13:36.285Z,4.30
2017-10-23T18:16:05.128Z,4.07
2017-10-23T18:18:34.015Z,4.70
2017-10-23T18:21:02.862Z,4.53
2017-10-23T18:23:31.722Z,4.50
2017-10-23T18:26:00.602Z,5.13
2017-10-23T18:28:29.452Z,5.27
2017-10-23T18:30:58.322Z,3.93
2017-10-23T18:33:27.174Z,4.20
2017-10-23T18:35:56.040Z,4.83
2017-10-23T18:38:24.884Z,4.73
2017-10-23T18:40:53.849Z,4.03
2017-10-23T18:43:22.762Z,3.70
2017-10-23T18:45:51.633Z,4.03
2017-10-23T18:48:21.225Z,4.30
2017-10-23T18:50:50.094Z,3.90
2017-10-23T18:53:18.977Z,4.87
2017-10-23T18:55:47.829Z,4.40
2017-10-23T19:00:51.943Z,4.50
2017-10-23T19:03:21.018Z,4.53
2017-10-23T19:05:49.875Z,5.50
2017-10-23T19:08:18.728Z,4.30
2017-10-23T19:10:47.621Z,4.90
2017-10-23T19:13:16.576Z,4.90
2017-10-23T19:15:45.447Z,4.70
2017-10-23T19:18:14.327Z,4.73
2017-10-23T19:20:43.233Z,4.60
2017-10-23T19:23:12.085Z,4.40
2017-10-23T19:25:40.922Z,5.07
2017-10-23T19:28:09.798Z,4.70
2017-10-23T19:30:38.659Z,5.40
2017-10-23T19:33:07.541Z,4.67
2017-10-23T19:35:36.391Z,4.70
2017-10-23T19:38:05.310Z,5.03
2017-10-23T19:40:34.555Z,5.70
2017-10-23T19:43:03.427Z,5.43
2017-10-23T19:45:32.294Z,4.20
2017-10-23T19:48:01.134Z,3.90
2017-10-23T19:50:29.995Z,4.57
2017-10-23T19:52:58.865Z,4.80
2017-10-23T19:55:27.764Z,4.57
2017-10-23T19:57:56.608Z,4.63
2017-10-23T20:00:25.460Z,4.40
2017-10-23T20:02:54.323Z,5.20
2017-10-23T20:05:23.161Z,5.10
2017-10-23T20:07:52.160Z,4.43
2017-10-23T20:10:21.002Z,4.80
2017-10-23T20:12:49.896Z,5.80
2017-10-23T20:15:18.758Z,5.23
2017-10-23T20:17:47.614Z,5.70
2017-10-23T20:20:16.483Z,5.67
2017-10-23T20:22:45.340Z,5.20
2017-10-23T20:25:14.291Z,5.03
2017-10-23T20:27:43.145Z,5.10
2017-10-23T20:30:12.016Z,4.93
2017-10-23T20:32:40.875Z,5.30
2017-10-23T20:35:09.917Z,4.73
2017-10-23T20:37:38.808Z,4.60
2017-10-23T20:40:07.659Z,4.70
2017-10-23T20:42:36.545Z,4.53
2017-10-23T20:45:05.395Z,4.43
2017-10-23T20:47:34.334Z,5.00
2017-10-23T20:50:03.199Z,5.20
2017-10-23T20:52:32.135Z,4.90
2017-10-23T20:55:00.976Z,4.47
2017-10-23T20:57:29.827Z,4.30
2017-10-23T20:59:58.739Z,3.90
2017-10-23T21:02:27.580Z,4.17
2017-10-23T21:04:56.441Z,3.77
2017-10-23T21:07:25.298Z,4.00
2017-10-23T21:09:54.227Z,4.10
2017-10-23T21:12:23.067Z,3.90
2017-10-23T21:14:51.932Z,4.30
2017-10-23T21:17:21.471Z,3.23
2017-10-23T21:19:50.330Z,4.10
2017-10-23T21:22:19.197Z,3.77
2017-10-23T21:24:48.043Z,3.47
2017-10-23T21:27:17.098Z,4.07
2017-10-23T21:29:45.949Z,3.43
2017-10-23T21:32:14.798Z,3.60
2017-10-23T21:34:43.693Z,3.40
2017-10-23T21:37:12.534Z,3.37
2017-10-23T21:39:41.540Z,3.97
2017-10-23T21:42:10.382Z,3.73
2017-10-23T21:44:39.241Z,3.50
2017-10-23T21:47:08.160Z,4.30
2017-10-23T21:49:37.003Z,4.40
2017-10-23T21:52:05.871Z,4.90
2017-10-23T21:54:34.735Z,4.97
2017-10-23T21:57:03.674Z,4.30
2017-10-23T21:59:32.531Z,4.77
2017-10-23T22:02:01.382Z,4.37
2017-10-23T22:04:30.245Z,4.33
2017-10-23T22:06:59.097Z,4.70
2017-10-23T22:09:27.970Z,4.53
2017-10-23T22:11:56.822Z,4.47
2017-10-23T22:14:25.894Z,5.30
2017-10-23T22:16:55.461Z,4.80
2017-10-23T22:19:24.309Z,4.47
2017-10-23T22:21:53.182Z,4.77
2017-10-23T22:24:22.037Z,4.70
2017-10-23T22:26:50.954Z,5.13
2017-10-23T22:29:19.796Z,4.33
2017-10-23T22:31:48.658Z,4.80
2017-10-23T22:34:17.526Z,4.57
2017-10-23T22:36:46.393Z,3.93
2017-10-23T22:39:15.256Z,4.90
2017-10-23T22:41:44.146Z,5.60
2017-10-23T22:44:12.999Z,7.43
2017-10-23T22:46:41.857Z,5.60
2017-10-23T22:49:10.710Z,5.53
2017-10-23T22:51:39.555Z,5.40
2017-10-23T22:54:08.420Z,4.13
2017-10-23T22:56:37.278Z,4.67
2017-10-23T22:59:06.178Z,4.40
2017-10-23T23:01:35.022Z,3.90
2017-10-23T23:04:03.880Z,4.50
2017-10-23T23:06:32.768Z,4.43
2017-10-23T23:09:01.611Z,4.80
2017-10-23T23:11:30.503Z,7.87
2017-10-23T23:13:59.353Z,5.90
2017-10-23T23:16:28.272Z,6.00
2017-10-23T23:18:57.107Z,5.93
2017-10-23T23:21:25.980Z,3.33
2017-10-23T23:23:54.853Z,4.10
2017-10-23T23:26:23.714Z,3.93
2017-10-23T23:28:52.570Z,4.50
2017-10-23T23:31:21.414Z,4.70
2017-10-23T23:33:50.332Z,4.23
2017-10-23T23:36:19.189Z,4.27
2017-10-23T23:38:48.058Z,4.17
2017-10-23T23:41:16.927Z,4.13
2017-10-23T23:43:45.774Z,4.00
2017-10-23T23:46:14.659Z,3.37
2017-10-23T23:48:43.518Z,4.80
2017-10-23T23:51:12.397Z,4.00
2017-10-23T23:53:41.245Z,4.23
2017-10-23T23:56:10.095Z,3.53
2017-10-23T23:58:38.958Z,3.83
